Time;durP1;ratioP1;P1;durP2;ratioP2;P2;SDS_P1;SDS_P2;PMS_P1;PMS_P2;Temp;Humidity;BMP_temperature;BMP_pressure;BME280_temperature;BME280_humidity;BME280_pressure;Samples;Min_cycle;Max_cycle;Signal;HPM_P1;HPM_P2
2021/12/09 00:00:20;;;;;;;61.20;26.75;;;;;;;;;;2376192;56;21035;-79
2021/12/09 00:02:46;;;;;;;58.72;25.60;;;;;;;;;;2629927;52;21038;-79
2021/12/09 00:05:15;;;;;;;69.15;27.02;;;;;;;;;;2376436;56;21519;-79
2021/12/09 00:07:43;;;;;;;64.85;27.37;;;;;;;;;;2375797;56;21122;-79
2021/12/09 00:10:11;;;;;;;66.05;28.33;;;;;;;;;;2376363;56;21094;-79
2021/12/09 00:12:38;;;;;;;71.00;28.38;;;;;;;;;;2376476;56;21007;-79
2021/12/09 00:15:06;;;;;;;72.25;28.62;;;;;;;;;;2376453;56;21015;-79
2021/12/09 00:17:33;;;;;;;58.35;25.33;;;;;;;;;;2629967;52;21007;-79
2021/12/09 00:20:00;;;;;;;68.30;26.37;;;;;;;;;;2376402;56;21118;-79
2021/12/09 00:22:27;;;;;;;63.92;25.77;;;;;;;;;;2376354;56;21443;-79
2021/12/09 00:24:54;;;;;;;59.28;25.25;;;;;;;;;;2630072;52;22252;-78
2021/12/09 00:27:21;;;;;;;68.93;26.02;;;;;;;;;;2630125;52;21483;-79
2021/12/09 00:29:48;;;;;;;72.03;27.50;;;;;;;;;;2630455;52;21015;-79
2021/12/09 00:32:15;;;;;;;74.35;29.05;;;;;;;;;;2376323;56;21023;-79
2021/12/09 00:34:46;;;;;;;70.57;27.55;;;;;;;;;;2376671;56;21515;-79
2021/12/09 00:37:20;;;;;;;63.10;26.87;;;;;;;;;;2630623;52;21015;-79
2021/12/09 00:39:49;;;;;;;60.80;23.85;;;;;;;;;;2630481;52;21015;-80
2021/12/09 00:42:17;;;;;;;66.95;25.95;;;;;;;;;;2630141;52;21011;-79
2021/12/09 00:44:43;;;;;;;66.10;26.45;;;;;;;;;;2376464;56;21055;-79
2021/12/09 00:47:10;;;;;;;70.43;29.10;;;;;;;;;;2376604;56;21015;-79
2021/12/09 00:49:37;;;;;;;69.00;27.52;;;;;;;;;;2376254;56;21074;-79
2021/12/09 00:52:06;;;;;;;70.45;29.65;;;;;;;;;;2376531;56;21023;-79
2021/12/09 00:54:33;;;;;;;71.12;28.08;;;;;;;;;;2376692;56;21515;-79
2021/12/09 00:57:00;;;;;;;69.78;28.33;;;;;;;;;;2376586;56;21099;-79
2021/12/09 00:59:27;;;;;;;71.07;27.27;;;;;;;;;;2376528;56;21527;-79
2021/12/09 01:01:54;;;;;;;74.57;27.92;;;;;;;;;;2376686;56;20999;-79
2021/12/09 01:04:21;;;;;;;77.85;28.12;;;;;;;;;;2377104;56;21031;-79
2021/12/09 01:06:49;;;;;;;78.68;30.48;;;;;;;;;;2629537;52;21003;-79
2021/12/09 01:09:16;;;;;;;77.95;28.40;;;;;;;;;;2376408;56;21011;-79
2021/12/09 01:11:44;;;;;;;74.97;29.27;;;;;;;;;;2376538;56;21031;-79
2021/12/09 01:14:11;;;;;;;71.55;30.35;;;;;;;;;;2376372;56;21098;-79
2021/12/09 01:16:38;;;;;;;73.10;30.10;;;;;;;;;;2376408;56;21761;-79
2021/12/09 01:19:05;;;;;;;70.40;28.67;;;;;;;;;;2629660;52;21062;-79
2021/12/09 01:21:32;;;;;;;71.30;28.10;;;;;;;;;;2630392;52;21007;-79
2021/12/09 01:23:59;;;;;;;79.55;30.75;;;;;;;;;;2630283;52;21015;-79
2021/12/09 01:26:28;;;;;;;74.45;28.30;;;;;;;;;;2376109;56;21042;-78
2021/12/09 01:28:58;;;;;;;79.50;29.77;;;;;;;;;;2376139;56;21075;-79
2021/12/09 01:31:29;;;;;;;82.55;31.55;;;;;;;;;;2630079;52;21736;-79
2021/12/09 01:34:01;;;;;;;76.75;29.92;;;;;;;;;;2376909;56;21082;-79
2021/12/09 01:36:28;;;;;;;80.05;29.52;;;;;;;;;;2376419;56;21038;-79
2021/12/09 01:38:55;;;;;;;74.47;29.25;;;;;;;;;;2376424;56;21008;-79
2021/12/09 01:41:22;;;;;;;86.60;31.42;;;;;;;;;;2376363;56;21106;-79
2021/12/09 01:43:50;;;;;;;74.07;29.42;;;;;;;;;;2376352;56;21095;-79
2021/12/09 01:46:18;;;;;;;75.55;30.27;;;;;;;;;;2629996;52;21603;-79
2021/12/09 01:48:46;;;;;;;80.57;30.23;;;;;;;;;;2376628;56;21587;-78
2021/12/09 01:51:14;;;;;;;77.72;29.33;;;;;;;;;;2630208;52;21083;-78
2021/12/09 01:53:41;;;;;;;85.65;31.80;;;;;;;;;;2376470;56;21134;-78
2021/12/09 01:56:10;;;;;;;76.93;32.88;;;;;;;;;;2630564;52;21058;-78
2021/12/09 01:58:37;;;;;;;76.37;30.65;;;;;;;;;;2628782;52;21015;-77
2021/12/09 02:01:06;;;;;;;121.00;32.40;;;;;;;;;;2375510;56;21102;-78
2021/12/09 02:03:33;;;;;;;79.30;28.83;;;;;;;;;;2628868;52;21011;-79
2021/12/09 02:06:00;;;;;;;76.97;29.48;;;;;;;;;;2375520;56;21020;-79
2021/12/09 02:08:27;;;;;;;84.00;29.30;;;;;;;;;;2375409;56;21015;-78
2021/12/09 02:10:54;;;;;;;93.18;34.17;;;;;;;;;;2628768;52;21020;-78
2021/12/09 02:13:21;;;;;;;77.12;28.00;;;;;;;;;;2375557;56;21686;-78
2021/12/09 02:15:52;;;;;;;81.70;29.02;;;;;;;;;;2375580;56;21055;-78
2021/12/09 02:18:21;;;;;;;75.43;28.92;;;;;;;;;;2375187;56;21111;-78
2021/12/09 02:20:48;;;;;;;93.62;34.08;;;;;;;;;;2628630;52;21007;-79
2021/12/09 02:23:17;;;;;;;89.10;31.58;;;;;;;;;;2375682;56;21027;-79
2021/12/09 02:25:45;;;;;;;87.40;31.17;;;;;;;;;;2630071;52;20995;-79
2021/12/09 02:28:13;;;;;;;78.03;28.60;;;;;;;;;;2629963;52;21070;-79
2021/12/09 02:30:40;;;;;;;79.87;30.25;;;;;;;;;;2376466;56;21031;-79
2021/12/09 02:33:07;;;;;;;91.55;31.73;;;;;;;;;;2376578;56;21047;-78
2021/12/09 02:35:34;;;;;;;83.47;30.23;;;;;;;;;;2376742;56;21562;-79
2021/12/09 02:38:01;;;;;;;71.30;28.00;;;;;;;;;;2376501;56;21090;-79
2021/12/09 02:40:28;;;;;;;74.35;29.08;;;;;;;;;;2376511;56;21117;-79
2021/12/09 02:42:55;;;;;;;78.00;29.90;;;;;;;;;;2630366;52;21090;-79
2021/12/09 02:45:24;;;;;;;81.95;30.02;;;;;;;;;;2375945;56;22058;-79
2021/12/09 02:47:51;;;;;;;85.45;31.83;;;;;;;;;;2376376;56;21027;-79
2021/12/09 02:50:18;;;;;;;78.22;29.80;;;;;;;;;;2630312;52;21019;-78
2021/12/09 02:52:45;;;;;;;77.57;29.70;;;;;;;;;;2376408;56;21559;-79
2021/12/09 02:55:13;;;;;;;84.07;31.95;;;;;;;;;;2630395;52;21095;-79
2021/12/09 02:57:40;;;;;;;87.22;32.78;;;;;;;;;;2376440;56;21195;-79
2021/12/09 03:00:08;;;;;;;81.12;30.65;;;;;;;;;;2376158;56;22210;-79
2021/12/09 03:02:36;;;;;;;79.05;30.37;;;;;;;;;;2376566;56;21023;-79
2021/12/09 03:05:04;;;;;;;70.50;26.25;;;;;;;;;;2376645;56;21043;-79
2021/12/09 03:07:34;;;;;;;83.30;31.15;;;;;;;;;;2376625;56;21515;-79
2021/12/09 03:10:03;;;;;;;83.20;29.73;;;;;;;;;;2376457;56;21078;-78
2021/12/09 03:12:31;;;;;;;76.07;29.37;;;;;;;;;;2376310;56;21087;-79
2021/12/09 03:14:58;;;;;;;79.72;29.80;;;;;;;;;;2376460;56;21309;-79
2021/12/09 03:17:25;;;;;;;76.85;31.15;;;;;;;;;;2630199;52;21011;-78
2021/12/09 03:19:53;;;;;;;74.28;29.10;;;;;;;;;;2375852;56;21015;-79
2021/12/09 03:22:21;;;;;;;77.18;31.17;;;;;;;;;;2630471;52;21038;-79
2021/12/09 03:24:49;;;;;;;81.00;29.75;;;;;;;;;;2376316;56;20995;-79
2021/12/09 03:27:16;;;;;;;82.60;31.33;;;;;;;;;;2376153;56;21011;-77
2021/12/09 03:29:43;;;;;;;74.82;31.02;;;;;;;;;;2376076;56;21083;-79
2021/12/09 03:32:11;;;;;;;71.22;27.23;;;;;;;;;;2376271;56;21039;-79
2021/12/09 03:34:39;;;;;;;74.20;28.85;;;;;;;;;;2376109;56;21071;-78
2021/12/09 03:37:09;;;;;;;71.80;29.12;;;;;;;;;;2376407;56;21039;-79
2021/12/09 03:39:37;;;;;;;82.35;30.65;;;;;;;;;;2376448;56;21027;-79
2021/12/09 03:42:05;;;;;;;73.32;30.23;;;;;;;;;;2630347;52;21014;-78
2021/12/09 03:44:34;;;;;;;75.15;29.48;;;;;;;;;;2376461;56;21127;-78
2021/12/09 03:47:02;;;;;;;75.25;29.45;;;;;;;;;;2376563;56;21102;-79
2021/12/09 03:49:29;;;;;;;77.35;30.80;;;;;;;;;;2376244;56;21016;-79
2021/12/09 03:51:56;;;;;;;72.60;29.20;;;;;;;;;;2630188;52;21059;-79
2021/12/09 03:54:24;;;;;;;70.72;27.48;;;;;;;;;;2629888;52;21022;-77
2021/12/09 03:56:51;;;;;;;69.70;28.45;;;;;;;;;;2630642;52;21617;-78
2021/12/09 03:59:18;;;;;;;78.97;30.80;;;;;;;;;;2629952;52;21030;-78
2021/12/09 04:01:46;;;;;;;77.35;31.52;;;;;;;;;;2630541;52;21094;-78
2021/12/09 04:04:14;;;;;;;82.18;34.45;;;;;;;;;;2376415;56;21050;-79
2021/12/09 04:06:41;;;;;;;83.62;32.28;;;;;;;;;;2376408;56;21047;-79
2021/12/09 04:09:09;;;;;;;81.28;31.00;;;;;;;;;;2629775;52;21061;-79
2021/12/09 04:11:36;;;;;;;81.78;31.70;;;;;;;;;;2630160;52;21087;-79
2021/12/09 04:14:04;;;;;;;74.43;29.90;;;;;;;;;;2630144;52;21007;-79
2021/12/09 04:16:31;;;;;;;72.45;29.80;;;;;;;;;;2376643;56;21107;-79
2021/12/09 04:18:59;;;;;;;75.57;30.95;;;;;;;;;;2483078;52;21015;-76
2021/12/09 04:21:26;;;;;;;82.43;31.80;;;;;;;;;;2377260;56;21006;-77
2021/12/09 04:23:53;;;;;;;77.85;31.98;;;;;;;;;;2377078;56;21026;-78
2021/12/09 04:26:20;;;;;;;74.12;30.20;;;;;;;;;;2376516;56;21090;-77
2021/12/09 04:28:47;;;;;;;72.45;31.02;;;;;;;;;;2630246;52;21015;-76
2021/12/09 04:31:14;;;;;;;78.15;32.70;;;;;;;;;;2375710;56;21563;-77
2021/12/09 04:33:42;;;;;;;85.07;32.28;;;;;;;;;;2628812;52;21516;-77
2021/12/09 04:36:10;;;;;;;79.12;30.33;;;;;;;;;;2629116;52;21082;-77
2021/12/09 04:38:37;;;;;;;73.00;29.85;;;;;;;;;;2629191;52;21554;-78
2021/12/09 04:41:04;;;;;;;68.40;29.35;;;;;;;;;;2628798;52;21027;-77
2021/12/09 04:43:31;;;;;;;67.47;26.83;;;;;;;;;;2375511;56;22129;-77
2021/12/09 04:46:00;;;;;;;75.40;30.98;;;;;;;;;;2375286;56;21578;-76
2021/12/09 04:48:27;;;;;;;75.05;30.45;;;;;;;;;;2629152;52;21027;-77
2021/12/09 04:50:54;;;;;;;69.25;29.77;;;;;;;;;;2628727;52;21270;-77
2021/12/09 04:53:21;;;;;;;72.93;29.27;;;;;;;;;;2375504;56;21015;-78
2021/12/09 04:55:48;;;;;;;75.35;31.42;;;;;;;;;;2375349;56;21026;-77
2021/12/09 04:58:15;;;;;;;73.65;30.02;;;;;;;;;;2375208;56;21039;-77
2021/12/09 05:00:41;;;;;;;73.00;29.52;;;;;;;;;;2374816;56;21087;-78
2021/12/09 05:03:11;;;;;;;82.88;32.53;;;;;;;;;;2629340;52;21011;-78
2021/12/09 05:05:40;;;;;;;74.53;30.40;;;;;;;;;;2375492;56;21030;-77
2021/12/09 05:08:08;;;;;;;76.97;33.20;;;;;;;;;;2375486;56;21027;-77
2021/12/09 05:10:49;;;;;;;79.12;31.65;;;;;;;;;;2375123;56;21026;-77
2021/12/09 05:13:16;;;;;;;72.90;27.80;;;;;;;;;;2375118;56;21022;-77
2021/12/09 05:15:43;;;;;;;77.32;30.55;;;;;;;;;;2628526;52;21106;-78
2021/12/09 05:18:10;;;;;;;80.00;29.63;;;;;;;;;;2375520;56;21643;-77
2021/12/09 05:20:37;;;;;;;87.07;33.97;;;;;;;;;;2375378;56;21313;-78
2021/12/09 05:23:05;;;;;;;77.95;30.83;;;;;;;;;;2629056;52;21034;-77
2021/12/09 05:25:32;;;;;;;80.45;29.40;;;;;;;;;;2375569;56;21106;-77
2021/12/09 05:27:59;;;;;;;86.70;31.12;;;;;;;;;;2375060;56;21071;-76
2021/12/09 05:30:39;;;;;;;79.15;30.55;;;;;;;;;;2374614;56;21030;-76
2021/12/09 05:33:06;;;;;;;83.68;31.30;;;;;;;;;;2628802;52;21063;-77
2021/12/09 05:35:33;;;;;;;82.97;30.55;;;;;;;;;;2628722;52;21033;-77
2021/12/09 05:38:01;;;;;;;81.55;32.03;;;;;;;;;;2375291;56;21519;-76
2021/12/09 05:40:28;;;;;;;75.70;30.17;;;;;;;;;;2374918;56;21003;-76
2021/12/09 05:42:55;;;;;;;81.47;32.28;;;;;;;;;;2375366;56;21099;-77
2021/12/09 05:45:22;;;;;;;82.65;31.15;;;;;;;;;;2375496;56;21094;-77
2021/12/09 05:47:50;;;;;;;83.25;33.35;;;;;;;;;;2628576;52;21031;-76
2021/12/09 05:50:17;;;;;;;78.50;32.17;;;;;;;;;;2375167;56;21086;-77
2021/12/09 05:52:44;;;;;;;74.35;29.80;;;;;;;;;;2628981;52;21035;-76
2021/12/09 05:55:11;;;;;;;83.65;32.72;;;;;;;;;;2628850;52;21087;-76
2021/12/09 05:57:38;;;;;;;88.18;33.33;;;;;;;;;;2375583;56;21535;-77
2021/12/09 06:00:08;;;;;;;75.47;31.40;;;;;;;;;;2374832;56;21015;-77
2021/12/09 06:02:35;;;;;;;81.40;31.77;;;;;;;;;;2375731;56;21027;-77
2021/12/09 06:05:02;;;;;;;84.35;32.58;;;;;;;;;;2629033;52;21024;-77
2021/12/09 06:07:29;;;;;;;79.95;31.37;;;;;;;;;;2375105;56;21007;-77
2021/12/09 06:09:58;;;;;;;83.32;31.33;;;;;;;;;;2374911;56;21019;-77
2021/12/09 06:12:25;;;;;;;83.70;31.87;;;;;;;;;;2375451;56;21078;-76
2021/12/09 06:14:52;;;;;;;84.97;32.78;;;;;;;;;;2629043;52;21098;-76
2021/12/09 06:17:19;;;;;;;94.40;32.42;;;;;;;;;;2375235;56;21027;-77
2021/12/09 06:19:46;;;;;;;91.28;34.42;;;;;;;;;;2374462;56;21034;-77
2021/12/09 06:22:13;;;;;;;75.70;30.33;;;;;;;;;;2628470;52;21030;-77
2021/12/09 06:24:41;;;;;;;88.80;32.97;;;;;;;;;;2375053;56;21528;-77
2021/12/09 06:27:08;;;;;;;86.65;32.05;;;;;;;;;;2375187;56;21033;-76
2021/12/09 06:29:35;;;;;;;82.68;31.65;;;;;;;;;;2375086;56;22181;-76
2021/12/09 06:32:02;;;;;;;79.65;30.25;;;;;;;;;;2629053;52;21039;-77
2021/12/09 06:34:30;;;;;;;83.97;32.13;;;;;;;;;;2375274;56;21078;-76
2021/12/09 06:36:57;;;;;;;80.85;32.15;;;;;;;;;;2629113;52;21030;-76
2021/12/09 06:39:24;;;;;;;81.47;29.60;;;;;;;;;;2627313;52;21066;-76
2021/12/09 06:41:51;;;;;;;80.32;32.03;;;;;;;;;;2375134;56;21042;-77
2021/12/09 06:44:18;;;;;;;81.05;31.92;;;;;;;;;;2375173;56;21095;-77
2021/12/09 06:46:45;;;;;;;82.00;30.65;;;;;;;;;;2375211;56;21111;-77
2021/12/09 06:49:12;;;;;;;87.82;32.33;;;;;;;;;;2375095;56;21070;-76
2021/12/09 06:51:39;;;;;;;87.55;31.77;;;;;;;;;;2628875;52;21065;-76
2021/12/09 06:54:05;;;;;;;87.82;32.97;;;;;;;;;;2628675;52;21026;-76
2021/12/09 06:56:32;;;;;;;78.03;29.48;;;;;;;;;;2374591;56;21050;-77
2021/12/09 06:59:00;;;;;;;86.82;31.85;;;;;;;;;;2374584;56;21085;-76
2021/12/09 07:01:27;;;;;;;88.12;32.38;;;;;;;;;;2628636;52;21083;-76
2021/12/09 07:03:54;;;;;;;76.57;29.52;;;;;;;;;;2628817;52;20992;-76
2021/12/09 07:06:21;;;;;;;83.78;32.35;;;;;;;;;;2628045;52;21527;-75
2021/12/09 07:08:50;;;;;;;85.05;33.70;;;;;;;;;;2375325;56;21035;-76
2021/12/09 07:11:17;;;;;;;86.47;30.83;;;;;;;;;;2628327;52;21182;-76
2021/12/09 07:13:45;;;;;;;85.75;32.67;;;;;;;;;;2628506;52;21039;-77
2021/12/09 07:16:12;;;;;;;80.70;31.80;;;;;;;;;;2374981;56;21043;-77
2021/12/09 07:18:39;;;;;;;79.07;27.77;;;;;;;;;;2628967;52;21109;-78
2021/12/09 07:21:06;;;;;;;85.47;31.98;;;;;;;;;;2375094;56;21023;-77
2021/12/09 07:23:34;;;;;;;88.10;32.40;;;;;;;;;;2375222;56;21042;-78
2021/12/09 07:26:01;;;;;;;87.10;33.58;;;;;;;;;;2375548;56;21019;-77
2021/12/09 07:28:28;;;;;;;86.55;32.42;;;;;;;;;;2375569;56;21082;-77
2021/12/09 07:30:55;;;;;;;84.62;33.60;;;;;;;;;;2374379;56;21519;-77
2021/12/09 07:33:22;;;;;;;83.45;34.70;;;;;;;;;;2374882;56;21019;-78
2021/12/09 07:35:49;;;;;;;90.07;31.30;;;;;;;;;;2375432;56;21590;-77
2021/12/09 07:38:16;;;;;;;80.43;29.52;;;;;;;;;;2375131;56;21117;-77
2021/12/09 07:40:43;;;;;;;87.95;33.17;;;;;;;;;;2375507;56;21527;-78
2021/12/09 07:43:10;;;;;;;81.97;30.52;;;;;;;;;;2375505;56;21519;-77
2021/12/09 07:45:37;;;;;;;82.95;31.55;;;;;;;;;;2375786;56;21019;-78
2021/12/09 07:48:05;;;;;;;88.20;30.70;;;;;;;;;;2629596;52;20995;-77
2021/12/09 07:50:33;;;;;;;84.35;32.30;;;;;;;;;;2375404;56;21079;-77
2021/12/09 07:53:00;;;;;;;79.28;30.45;;;;;;;;;;2629286;52;21015;-77
2021/12/09 07:55:30;;;;;;;79.65;30.50;;;;;;;;;;2629115;52;21046;-78
2021/12/09 07:57:57;;;;;;;89.07;34.25;;;;;;;;;;2629191;52;21106;-78
2021/12/09 08:00:25;;;;;;;86.05;32.28;;;;;;;;;;2375379;56;21023;-77
2021/12/09 08:02:53;;;;;;;89.78;32.03;;;;;;;;;;2376012;56;21018;-78
2021/12/09 08:05:20;;;;;;;90.28;32.28;;;;;;;;;;2375652;56;21535;-78
2021/12/09 08:07:47;;;;;;;91.30;32.97;;;;;;;;;;2375940;56;21078;-79
2021/12/09 08:10:15;;;;;;;94.65;37.53;;;;;;;;;;2375838;56;21066;-78
2021/12/09 08:12:43;;;;;;;82.40;31.90;;;;;;;;;;2629572;52;21130;-79
2021/12/09 08:15:11;;;;;;;96.15;34.67;;;;;;;;;;2376092;56;21078;-79
2021/12/09 08:17:46;;;;;;;87.22;30.70;;;;;;;;;;2375712;56;21023;-79
2021/12/09 08:20:15;;;;;;;86.80;31.87;;;;;;;;;;2375047;56;21106;-78
2021/12/09 08:22:43;;;;;;;85.97;32.22;;;;;;;;;;2375702;56;21086;-78
2021/12/09 08:25:12;;;;;;;91.37;32.85;;;;;;;;;;2375751;56;21011;-78
2021/12/09 08:27:42;;;;;;;89.82;31.37;;;;;;;;;;2375403;56;21098;-79
2021/12/09 08:30:12;;;;;;;89.55;31.80;;;;;;;;;;2375423;56;21003;-78
2021/12/09 08:32:39;;;;;;;95.28;35.42;;;;;;;;;;2376000;56;21150;-78
2021/12/09 08:35:07;;;;;;;98.80;34.75;;;;;;;;;;2629633;52;21023;-79
2021/12/09 08:37:34;;;;;;;84.95;31.52;;;;;;;;;;2629615;52;21566;-79
2021/12/09 08:40:02;;;;;;;88.90;32.65;;;;;;;;;;2375683;56;21074;-77
2021/12/09 08:42:28;;;;;;;85.80;33.38;;;;;;;;;;2375844;56;21538;-78
2021/12/09 08:44:56;;;;;;;96.07;32.28;;;;;;;;;;2376031;56;21011;-79
2021/12/09 08:47:22;;;;;;;83.65;30.10;;;;;;;;;;2376205;56;21058;-79
2021/12/09 08:49:49;;;;;;;79.87;29.45;;;;;;;;;;2628915;52;21087;-78
2021/12/09 08:52:17;;;;;;;101.20;34.80;;;;;;;;;;2375820;56;21530;-77
2021/12/09 08:54:43;;;;;;;88.50;32.67;;;;;;;;;;2375554;56;21527;-77
2021/12/09 08:57:11;;;;;;;86.15;32.10;;;;;;;;;;2375498;56;21493;-77
2021/12/09 08:59:38;;;;;;;87.18;33.22;;;;;;;;;;2629285;52;21125;-77
2021/12/09 09:02:06;;;;;;;91.45;31.17;;;;;;;;;;2629189;52;21078;-77
2021/12/09 09:04:33;;;;;;;88.55;32.90;;;;;;;;;;2375671;56;21019;-77
2021/12/09 09:07:01;;;;;;;82.65;31.48;;;;;;;;;;2375575;56;21019;-77
2021/12/09 09:09:33;;;;;;;85.25;31.00;;;;;;;;;;2374758;56;21165;-77
2021/12/09 09:12:00;;;;;;;81.50;31.67;;;;;;;;;;2375648;56;21340;-77
2021/12/09 09:14:27;;;;;;;90.85;35.03;;;;;;;;;;2375502;56;21083;-77
2021/12/09 09:16:54;;;;;;;89.28;33.58;;;;;;;;;;2375771;56;21122;-77
2021/12/09 09:19:21;;;;;;;89.07;33.58;;;;;;;;;;2375199;56;21531;-77
2021/12/09 09:21:48;;;;;;;92.30;32.90;;;;;;;;;;2375648;56;21605;-77
2021/12/09 09:24:15;;;;;;;84.30;31.67;;;;;;;;;;2375316;56;21023;-77
2021/12/09 09:26:42;;;;;;;93.78;34.88;;;;;;;;;;2375660;56;21103;-78
2021/12/09 09:29:09;;;;;;;89.28;32.22;;;;;;;;;;2375011;56;21582;-78
2021/12/09 09:31:37;;;;;;;88.18;31.33;;;;;;;;;;2374575;56;21019;-78
2021/12/09 09:34:04;;;;;;;89.87;32.75;;;;;;;;;;2375386;56;21038;-77
2021/12/09 09:36:31;;;;;;;84.30;33.10;;;;;;;;;;2629248;52;20999;-77
2021/12/09 09:39:06;;;;;;;87.75;32.00;;;;;;;;;;2628912;52;21074;-78
2021/12/09 09:41:34;;;;;;;101.57;33.25;;;;;;;;;;2375638;56;21079;-77
2021/12/09 09:44:12;;;;;;;88.20;33.63;;;;;;;;;;2375707;56;21173;-77
2021/12/09 09:46:39;;;;;;;98.32;33.95;;;;;;;;;;2375721;56;21019;-77
2021/12/09 09:49:06;;;;;;;98.55;33.55;;;;;;;;;;2375554;56;21043;-77
2021/12/09 09:51:34;;;;;;;91.63;32.97;;;;;;;;;;2375263;56;21011;-78
2021/12/09 09:54:02;;;;;;;88.78;33.22;;;;;;;;;;2375557;56;21087;-77
2021/12/09 09:56:31;;;;;;;91.63;33.70;;;;;;;;;;2375506;56;21380;-77
2021/12/09 09:58:59;;;;;;;85.75;31.52;;;;;;;;;;2375478;56;21586;-77
2021/12/09 10:01:28;;;;;;;82.70;29.98;;;;;;;;;;2375413;56;21074;-77
2021/12/09 10:04:09;;;;;;;81.03;31.33;;;;;;;;;;2629032;52;21086;-77
2021/12/09 10:06:37;;;;;;;80.60;32.47;;;;;;;;;;2375705;56;21145;-77
2021/12/09 10:09:05;;;;;;;95.25;33.70;;;;;;;;;;2375281;56;21086;-77
2021/12/09 10:11:32;;;;;;;81.32;31.12;;;;;;;;;;2375551;56;21012;-77
2021/12/09 10:14:09;;;;;;;91.05;32.47;;;;;;;;;;2375616;56;21031;-77
2021/12/09 10:16:38;;;;;;;87.18;34.40;;;;;;;;;;2375558;56;21133;-77
2021/12/09 10:19:13;;;;;;;91.15;33.58;;;;;;;;;;2580984;51;68993;-75
2021/12/09 10:21:40;;;;;;;89.43;35.80;;;;;;;;;;2384313;56;21022;-75
2021/12/09 10:24:09;;;;;;;83.40;31.27;;;;;;;;;;2384783;56;21110;-75
2021/12/09 10:26:37;;;;;;;84.72;31.77;;;;;;;;;;2384985;56;21075;-75
2021/12/09 10:29:09;;;;;;;85.85;31.50;;;;;;;;;;2396588;52;21134;-75
2021/12/09 10:31:39;;;;;;;98.10;35.22;;;;;;;;;;2383876;56;21579;-75
2021/12/09 10:34:34;;;;;;;96.32;33.88;;;;;;;;;;2383520;56;21537;-74
2021/12/09 10:37:03;;;;;;;90.55;33.88;;;;;;;;;;2383691;56;21073;-75
2021/12/09 10:39:34;;;;;;;95.05;34.08;;;;;;;;;;2383146;56;21031;-73
2021/12/09 10:42:02;;;;;;;88.65;34.75;;;;;;;;;;2383911;56;21019;-75
2021/12/09 10:44:34;;;;;;;83.35;31.65;;;;;;;;;;2383556;56;21018;-75
2021/12/09 10:47:08;;;;;;;93.12;35.45;;;;;;;;;;2383645;56;21070;-75
2021/12/09 10:49:46;;;;;;;90.45;32.65;;;;;;;;;;2383392;56;21085;-74
2021/12/09 10:52:29;;;;;;;83.45;32.53;;;;;;;;;;2383882;56;21054;-73
2021/12/09 10:54:57;;;;;;;92.35;35.00;;;;;;;;;;2383666;56;21042;-75
2021/12/09 10:57:28;;;;;;;87.50;32.65;;;;;;;;;;2383777;56;21090;-75
2021/12/09 10:59:56;;;;;;;95.43;35.00;;;;;;;;;;2383180;56;21018;-74
2021/12/09 11:02:24;;;;;;;90.45;33.75;;;;;;;;;;2383497;56;21031;-75
2021/12/09 11:05:02;;;;;;;89.85;34.00;;;;;;;;;;2415105;52;21014;-75
2021/12/09 11:07:31;;;;;;;91.60;32.17;;;;;;;;;;2383708;56;21090;-75
2021/12/09 11:10:18;;;;;;;86.80;33.30;;;;;;;;;;2383166;56;21026;-74
2021/12/09 11:12:52;;;;;;;84.93;30.55;;;;;;;;;;2382740;56;21023;-74
2021/12/09 11:15:21;;;;;;;87.12;32.42;;;;;;;;;;2383160;56;21022;-74
2021/12/09 11:17:50;;;;;;;93.80;34.00;;;;;;;;;;2383884;56;21414;-74
2021/12/09 11:20:37;;;;;;;93.18;33.35;;;;;;;;;;2383096;56;21030;-74
2021/12/09 11:23:21;;;;;;;91.25;30.85;;;;;;;;;;2383711;56;21030;-74
2021/12/09 11:25:49;;;;;;;98.30;33.47;;;;;;;;;;2383679;56;21026;-74
2021/12/09 11:28:16;;;;;;;94.30;34.30;;;;;;;;;;2384330;56;21020;-78
2021/12/09 11:31:05;;;;;;;96.20;34.70;;;;;;;;;;2382191;56;21019;-74
2021/12/09 11:33:35;;;;;;;81.00;32.70;;;;;;;;;;2398983;52;21050;-74
2021/12/09 11:36:03;;;;;;;93.10;35.08;;;;;;;;;;2441552;52;21019;-77
2021/12/09 11:38:44;;;;;;;93.53;33.13;;;;;;;;;;2383024;56;21070;-74
2021/12/09 11:41:29;;;;;;;100.15;34.67;;;;;;;;;;2438419;52;21031;-75
2021/12/09 11:43:56;;;;;;;104.78;38.28;;;;;;;;;;2382722;56;21070;-73
2021/12/09 11:46:23;;;;;;;90.05;31.35;;;;;;;;;;2382618;56;21039;-75
2021/12/09 11:48:50;;;;;;;89.55;34.65;;;;;;;;;;2384720;52;21498;-75
2021/12/09 11:51:17;;;;;;;92.90;34.03;;;;;;;;;;2382848;56;21113;-75
2021/12/09 11:53:45;;;;;;;91.68;33.70;;;;;;;;;;2382544;56;21151;-75
2021/12/09 11:56:25;;;;;;;100.35;36.22;;;;;;;;;;2387475;52;21027;-75
2021/12/09 12:07:54;;;;;;;96.53;32.28;;;;;;;;;;2383044;52;21337;-75
2021/12/09 12:13:33;;;;;;;93.53;34.75;;;;;;;;;;2382678;52;21034;-74
2021/12/09 12:16:27;;;;;;;84.20;30.77;;;;;;;;;;2382670;56;21015;-74
2021/12/09 12:19:00;;;;;;;85.93;32.25;;;;;;;;;;2382952;56;21038;-73
2021/12/09 12:21:45;;;;;;;98.30;34.53;;;;;;;;;;2383497;56;21600;-75
2021/12/09 12:24:37;;;;;;;98.00;33.63;;;;;;;;;;2479556;52;21035;-74
2021/12/09 12:27:09;;;;;;;99.60;33.83;;;;;;;;;;2382916;56;21098;-74
2021/12/09 12:30:03;;;;;;;103.75;34.83;;;;;;;;;;2445109;52;21085;-75
2021/12/09 12:33:01;;;;;;;99.10;34.35;;;;;;;;;;2383766;56;21153;-74
2021/12/09 12:35:49;;;;;;;91.45;32.85;;;;;;;;;;2383259;56;21034;-75
2021/12/09 12:38:29;;;;;;;90.22;35.95;;;;;;;;;;2383385;56;21082;-74
2021/12/09 12:41:06;;;;;;;98.47;37.47;;;;;;;;;;2383179;56;21022;-75
2021/12/09 12:43:37;;;;;;;94.70;36.00;;;;;;;;;;2383723;56;21011;-74
2021/12/09 12:46:12;;;;;;;98.72;35.03;;;;;;;;;;2382990;56;21031;-74
2021/12/09 12:48:59;;;;;;;92.93;34.35;;;;;;;;;;2471139;52;21497;-74
2021/12/09 12:51:30;;;;;;;101.15;34.80;;;;;;;;;;2459022;52;21114;-75
2021/12/09 12:53:58;;;;;;;94.53;33.38;;;;;;;;;;2383601;56;21011;-75
2021/12/09 12:56:26;;;;;;;91.60;33.75;;;;;;;;;;2439179;52;21078;-73
2021/12/09 12:59:13;;;;;;;104.35;38.35;;;;;;;;;;2382935;56;21022;-75
2021/12/09 13:01:45;;;;;;;86.70;32.88;;;;;;;;;;2385270;52;21410;-73
2021/12/09 13:04:39;;;;;;;87.20;32.55;;;;;;;;;;2383753;56;21035;-73
2021/12/09 13:07:17;;;;;;;96.80;34.17;;;;;;;;;;2383620;56;21031;-75
2021/12/09 13:09:53;;;;;;;86.22;31.48;;;;;;;;;;2382845;56;21034;-75
2021/12/09 13:12:35;;;;;;;95.70;33.88;;;;;;;;;;2383649;56;21031;-74
2021/12/09 13:15:21;;;;;;;89.25;32.17;;;;;;;;;;2383040;56;21022;-75
2021/12/09 13:17:59;;;;;;;93.40;35.80;;;;;;;;;;2383218;56;21196;-74
2021/12/09 13:20:27;;;;;;;101.03;37.47;;;;;;;;;;2382699;56;21035;-74
2021/12/09 13:23:18;;;;;;;95.25;35.53;;;;;;;;;;2383269;56;21015;-74
2021/12/09 13:26:03;;;;;;;107.78;38.60;;;;;;;;;;2383762;56;21023;-75
2021/12/09 13:28:38;;;;;;;95.32;33.33;;;;;;;;;;2383915;56;21026;-75
2021/12/09 13:31:12;;;;;;;95.60;34.45;;;;;;;;;;2382818;56;21046;-74
2021/12/09 13:33:54;;;;;;;102.87;36.00;;;;;;;;;;2383065;56;21034;-74
2021/12/09 13:36:42;;;;;;;101.87;37.87;;;;;;;;;;2424853;52;21157;-73
2021/12/09 13:39:52;;;;;;;98.12;34.78;;;;;;;;;;2382817;56;21266;-74
2021/12/09 13:48:12;;;;;;;87.85;31.98;;;;;;;;;;2405138;52;20970;-73
2021/12/09 13:50:50;;;;;;;91.32;33.53;;;;;;;;;;2383093;56;21038;-75
2021/12/09 13:56:03;;;;;;;95.62;33.42;;;;;;;;;;2399671;52;21057;-75
2021/12/09 13:58:30;;;;;;;100.25;35.33;;;;;;;;;;2413103;52;21018;-77
2021/12/09 14:00:57;;;;;;;90.05;34.78;;;;;;;;;;2386208;52;21094;-74
2021/12/09 14:03:25;;;;;;;96.85;33.17;;;;;;;;;;2382999;56;22129;-75
2021/12/09 14:05:55;;;;;;;101.65;38.83;;;;;;;;;;2382805;56;21023;-74
2021/12/09 14:08:29;;;;;;;98.30;35.50;;;;;;;;;;2383257;56;21054;-74
2021/12/09 14:11:02;;;;;;;94.82;33.75;;;;;;;;;;2382741;56;21026;-75
2021/12/09 14:13:31;;;;;;;101.00;36.58;;;;;;;;;;2383553;56;21023;-76
2021/12/09 14:16:13;;;;;;;98.68;36.60;;;;;;;;;;2382579;56;21018;-75
2021/12/09 14:19:02;;;;;;;96.50;34.25;;;;;;;;;;2383269;56;21046;-75
2021/12/09 14:21:29;;;;;;;94.53;34.40;;;;;;;;;;2383532;56;21134;-75
2021/12/09 14:24:06;;;;;;;86.57;33.58;;;;;;;;;;2383530;56;21046;-75
2021/12/09 14:26:33;;;;;;;96.65;35.50;;;;;;;;;;2383156;56;21628;-74
2021/12/09 14:29:00;;;;;;;105.43;35.90;;;;;;;;;;2382488;56;21560;-77
2021/12/09 14:31:27;;;;;;;97.85;34.47;;;;;;;;;;2383517;56;21042;-75
2021/12/09 14:33:57;;;;;;;100.75;34.95;;;;;;;;;;2383428;56;21038;-75
2021/12/09 14:36:24;;;;;;;102.53;35.58;;;;;;;;;;2383779;56;21110;-76
2021/12/09 14:38:52;;;;;;;103.72;37.60;;;;;;;;;;2383209;56;21097;-75
2021/12/09 14:41:25;;;;;;;106.53;35.17;;;;;;;;;;2383574;56;21031;-75
2021/12/09 14:43:52;;;;;;;108.55;36.50;;;;;;;;;;2383607;56;21034;-75
2021/12/09 14:46:21;;;;;;;98.15;35.15;;;;;;;;;;2383447;56;21086;-75
2021/12/09 14:48:49;;;;;;;107.85;37.42;;;;;;;;;;2382990;56;21184;-74
2021/12/09 14:51:18;;;;;;;101.87;35.60;;;;;;;;;;2383544;56;21014;-75